sensor_id;sensor_type;location;lat;lon;timestamp;P1;durP1;ratioP1;P2;durP2;ratioP2
18013;SDS011;9132;47.946;10.394;2023-09-08T00:01:17;7.60;;;6.80;;
18013;SDS011;9132;47.946;10.394;2023-09-08T00:03:43;6.28;;;5.68;;
18013;SDS011;9132;47.946;10.394;2023-09-08T00:06:11;7.05;;;6.45;;
18013;SDS011;9132;47.946;10.394;2023-09-08T00:08:37;6.78;;;6.28;;
18013;SDS011;9132;47.946;10.394;2023-09-08T00:11:03;6.82;;;6.18;;
18013;SDS011;9132;47.946;10.394;2023-09-08T00:13:32;8.43;;;5.95;;
18013;SDS011;9132;47.946;10.394;2023-09-08T00:15:58;8.77;;;6.22;;
18013;SDS011;9132;47.946;10.394;2023-09-08T00:18:24;6.18;;;5.50;;
18013;SDS011;9132;47.946;10.394;2023-09-08T00:20:51;7.15;;;6.45;;
18013;SDS011;9132;47.946;10.394;2023-09-08T00:23:18;9.05;;;6.75;;
18013;SDS011;9132;47.946;10.394;2023-09-08T00:25:45;6.82;;;6.22;;
18013;SDS011;9132;47.946;10.394;2023-09-08T00:28:11;7.95;;;7.25;;
18013;SDS011;9132;47.946;10.394;2023-09-08T00:30:38;8.60;;;7.30;;
18013;SDS011;9132;47.946;10.394;2023-09-08T00:33:04;7.90;;;7.10;;
18013;SDS011;9132;47.946;10.394;2023-09-08T00:35:33;8.05;;;7.05;;
18013;SDS011;9132;47.946;10.394;2023-09-08T00:37:59;8.23;;;7.38;;
18013;SDS011;9132;47.946;10.394;2023-09-08T00:40:27;7.50;;;6.70;;
18013;SDS011;9132;47.946;10.394;2023-09-08T00:42:54;8.45;;;7.20;;
18013;SDS011;9132;47.946;10.394;2023-09-08T00:45:20;6.95;;;6.32;;
18013;SDS011;9132;47.946;10.394;2023-09-08T00:47:46;7.60;;;6.70;;
18013;SDS011;9132;47.946;10.394;2023-09-08T00:50:13;7.50;;;6.80;;
18013;SDS011;9132;47.946;10.394;2023-09-08T00:52:40;10.50;;;7.25;;
18013;SDS011;9132;47.946;10.394;2023-09-08T00:55:06;9.20;;;8.30;;
18013;SDS011;9132;47.946;10.394;2023-09-08T00:57:34;7.68;;;6.97;;
18013;SDS011;9132;47.946;10.394;2023-09-08T01:00:01;7.40;;;6.70;;
18013;SDS011;9132;47.946;10.394;2023-09-08T01:02:30;10.48;;;8.23;;
18013;SDS011;9132;47.946;10.394;2023-09-08T01:04:57;10.73;;;7.93;;
18013;SDS011;9132;47.946;10.394;2023-09-08T01:07:24;8.82;;;8.02;;
18013;SDS011;9132;47.946;10.394;2023-09-08T01:09:52;9.77;;;7.50;;
18013;SDS011;9132;47.946;10.394;2023-09-08T01:12:18;7.68;;;6.90;;
18013;SDS011;9132;47.946;10.394;2023-09-08T01:14:46;9.18;;;7.38;;
18013;SDS011;9132;47.946;10.394;2023-09-08T01:17:12;8.68;;;7.88;;
18013;SDS011;9132;47.946;10.394;2023-09-08T01:19:39;8.20;;;7.47;;
18013;SDS011;9132;47.946;10.394;2023-09-08T01:25:11;8.88;;;7.75;;
18013;SDS011;9132;47.946;10.394;2023-09-08T01:27:39;8.85;;;7.97;;
18013;SDS011;9132;47.946;10.394;2023-09-08T01:30:07;8.73;;;7.90;;
18013;SDS011;9132;47.946;10.394;2023-09-08T01:32:33;9.48;;;8.25;;
18013;SDS011;9132;47.946;10.394;2023-09-08T01:35:00;9.13;;;8.20;;
18013;SDS011;9132;47.946;10.394;2023-09-08T01:37:26;8.57;;;7.78;;
18013;SDS011;9132;47.946;10.394;2023-09-08T01:39:53;9.07;;;8.18;;
18013;SDS011;9132;47.946;10.394;2023-09-08T01:42:21;9.20;;;8.30;;
18013;SDS011;9132;47.946;10.394;2023-09-08T01:44:47;8.50;;;7.70;;
18013;SDS011;9132;47.946;10.394;2023-09-08T01:47:13;9.13;;;8.23;;
18013;SDS011;9132;47.946;10.394;2023-09-08T01:49:40;9.35;;;8.55;;
18013;SDS011;9132;47.946;10.394;2023-09-08T01:52:06;9.23;;;8.32;;
18013;SDS011;9132;47.946;10.394;2023-09-08T01:54:32;9.55;;;8.63;;
18013;SDS011;9132;47.946;10.394;2023-09-08T01:56:58;9.00;;;8.20;;
18013;SDS011;9132;47.946;10.394;2023-09-08T01:59:26;8.68;;;7.88;;
18013;SDS011;9132;47.946;10.394;2023-09-08T02:01:52;9.60;;;8.18;;
18013;SDS011;9132;47.946;10.394;2023-09-08T02:04:19;9.02;;;8.15;;
18013;SDS011;9132;47.946;10.394;2023-09-08T02:06:45;9.15;;;8.30;;
18013;SDS011;9132;47.946;10.394;2023-09-08T02:09:13;10.50;;;8.07;;
18013;SDS011;9132;47.946;10.394;2023-09-08T02:11:39;9.32;;;8.50;;
18013;SDS011;9132;47.946;10.394;2023-09-08T02:14:07;9.10;;;8.23;;
18013;SDS011;9132;47.946;10.394;2023-09-08T02:16:35;9.35;;;8.45;;
18013;SDS011;9132;47.946;10.394;2023-09-08T02:19:01;9.23;;;8.43;;
18013;SDS011;9132;47.946;10.394;2023-09-08T02:21:28;8.73;;;7.90;;
18013;SDS011;9132;47.946;10.394;2023-09-08T02:23:54;8.75;;;8.05;;
18013;SDS011;9132;47.946;10.394;2023-09-08T02:26:20;9.02;;;8.10;;
18013;SDS011;9132;47.946;10.394;2023-09-08T02:28:47;9.30;;;8.40;;
18013;SDS011;9132;47.946;10.394;2023-09-08T02:31:13;8.52;;;7.70;;
18013;SDS011;9132;47.946;10.394;2023-09-08T02:33:41;9.57;;;8.55;;
18013;SDS011;9132;47.946;10.394;2023-09-08T02:36:07;7.95;;;7.25;;
18013;SDS011;9132;47.946;10.394;2023-09-08T02:38:33;8.73;;;7.80;;
18013;SDS011;9132;47.946;10.394;2023-09-08T02:41:00;8.55;;;7.57;;
18013;SDS011;9132;47.946;10.394;2023-09-08T02:43:26;8.02;;;7.32;;
18013;SDS011;9132;47.946;10.394;2023-09-08T02:45:53;10.45;;;7.35;;
18013;SDS011;9132;47.946;10.394;2023-09-08T02:48:19;8.18;;;7.45;;
18013;SDS011;9132;47.946;10.394;2023-09-08T02:50:47;8.13;;;7.40;;
18013;SDS011;9132;47.946;10.394;2023-09-08T02:53:13;8.43;;;7.55;;
18013;SDS011;9132;47.946;10.394;2023-09-08T02:55:39;7.88;;;7.10;;
18013;SDS011;9132;47.946;10.394;2023-09-08T02:58:06;8.27;;;7.40;;
18013;SDS011;9132;47.946;10.394;2023-09-08T03:00:32;8.10;;;7.40;;
18013;SDS011;9132;47.946;10.394;2023-09-08T03:02:59;8.38;;;7.65;;
18013;SDS011;9132;47.946;10.394;2023-09-08T03:05:25;9.52;;;7.63;;
18013;SDS011;9132;47.946;10.394;2023-09-08T03:07:52;8.43;;;7.20;;
18013;SDS011;9132;47.946;10.394;2023-09-08T03:10:19;7.82;;;7.07;;
18013;SDS011;9132;47.946;10.394;2023-09-08T03:12:45;8.18;;;7.47;;
18013;SDS011;9132;47.946;10.394;2023-09-08T03:15:12;7.77;;;7.03;;
18013;SDS011;9132;47.946;10.394;2023-09-08T03:17:38;8.37;;;7.43;;
18013;SDS011;9132;47.946;10.394;2023-09-08T03:20:05;7.70;;;7.00;;
18013;SDS011;9132;47.946;10.394;2023-09-08T03:22:33;8.93;;;6.90;;
18013;SDS011;9132;47.946;10.394;2023-09-08T03:25:01;8.83;;;7.77;;
18013;SDS011;9132;47.946;10.394;2023-09-08T03:27:28;7.43;;;6.72;;
18013;SDS011;9132;47.946;10.394;2023-09-08T03:29:54;8.27;;;7.47;;
18013;SDS011;9132;47.946;10.394;2023-09-08T03:32:20;8.70;;;7.90;;
18013;SDS011;9132;47.946;10.394;2023-09-08T03:34:47;8.47;;;7.67;;
18013;SDS011;9132;47.946;10.394;2023-09-08T03:37:13;8.68;;;7.85;;
18013;SDS011;9132;47.946;10.394;2023-09-08T03:39:40;8.38;;;7.60;;
18013;SDS011;9132;47.946;10.394;2023-09-08T03:42:08;9.98;;;8.65;;
18013;SDS011;9132;47.946;10.394;2023-09-08T03:44:34;9.38;;;8.48;;
18013;SDS011;9132;47.946;10.394;2023-09-08T03:47:00;9.80;;;8.80;;
18013;SDS011;9132;47.946;10.394;2023-09-08T03:49:27;10.05;;;9.05;;
18013;SDS011;9132;47.946;10.394;2023-09-08T03:51:54;9.82;;;8.85;;
18013;SDS011;9132;47.946;10.394;2023-09-08T03:54:20;8.00;;;7.20;;
18013;SDS011;9132;47.946;10.394;2023-09-08T03:56:46;9.00;;;7.88;;
18013;SDS011;9132;47.946;10.394;2023-09-08T03:59:14;9.02;;;7.68;;
18013;SDS011;9132;47.946;10.394;2023-09-08T04:01:40;8.15;;;7.35;;
18013;SDS011;9132;47.946;10.394;2023-09-08T04:04:06;8.60;;;7.80;;
18013;SDS011;9132;47.946;10.394;2023-09-08T04:06:33;8.18;;;7.35;;
18013;SDS011;9132;47.946;10.394;2023-09-08T04:08:59;8.45;;;7.75;;
18013;SDS011;9132;47.946;10.394;2023-09-08T04:11:26;8.63;;;7.83;;
18013;SDS011;9132;47.946;10.394;2023-09-08T04:13:52;8.33;;;7.57;;
18013;SDS011;9132;47.946;10.394;2023-09-08T04:16:20;9.18;;;8.27;;
18013;SDS011;9132;47.946;10.394;2023-09-08T04:18:46;8.95;;;8.07;;
18013;SDS011;9132;47.946;10.394;2023-09-08T04:21:13;9.57;;;8.63;;
18013;SDS011;9132;47.946;10.394;2023-09-08T04:23:39;9.38;;;8.45;;
18013;SDS011;9132;47.946;10.394;2023-09-08T04:26:06;9.65;;;8.35;;
18013;SDS011;9132;47.946;10.394;2023-09-08T04:28:32;9.88;;;8.70;;
18013;SDS011;9132;47.946;10.394;2023-09-08T04:30:58;10.15;;;8.82;;
18013;SDS011;9132;47.946;10.394;2023-09-08T04:33:26;8.75;;;7.93;;
18013;SDS011;9132;47.946;10.394;2023-09-08T04:35:54;11.15;;;7.90;;
18013;SDS011;9132;47.946;10.394;2023-09-08T04:38:20;9.77;;;8.88;;
18013;SDS011;9132;47.946;10.394;2023-09-08T04:40:46;9.40;;;8.50;;
18013;SDS011;9132;47.946;10.394;2023-09-08T04:43:13;9.10;;;8.25;;
18013;SDS011;9132;47.946;10.394;2023-09-08T04:45:39;9.25;;;8.30;;
18013;SDS011;9132;47.946;10.394;2023-09-08T04:48:06;10.55;;;9.45;;
18013;SDS011;9132;47.946;10.394;2023-09-08T04:50:34;9.48;;;8.57;;
18013;SDS011;9132;47.946;10.394;2023-09-08T04:53:00;9.82;;;9.02;;
18013;SDS011;9132;47.946;10.394;2023-09-08T04:55:26;10.30;;;9.25;;
18013;SDS011;9132;47.946;10.394;2023-09-08T04:57:53;9.55;;;8.73;;
18013;SDS011;9132;47.946;10.394;2023-09-08T05:00:19;10.07;;;9.07;;
18013;SDS011;9132;47.946;10.394;2023-09-08T05:02:45;10.60;;;9.60;;
18013;SDS011;9132;47.946;10.394;2023-09-08T05:05:12;10.07;;;9.07;;
18013;SDS011;9132;47.946;10.394;2023-09-08T05:07:39;11.60;;;9.07;;
18013;SDS011;9132;47.946;10.394;2023-09-08T05:10:06;9.68;;;8.63;;
18013;SDS011;9132;47.946;10.394;2023-09-08T05:12:32;10.77;;;9.02;;
18013;SDS011;9132;47.946;10.394;2023-09-08T05:14:58;9.93;;;9.00;;
18013;SDS011;9132;47.946;10.394;2023-09-08T05:17:31;9.40;;;8.48;;
18013;SDS011;9132;47.946;10.394;2023-09-08T05:19:57;9.30;;;8.50;;
18013;SDS011;9132;47.946;10.394;2023-09-08T05:22:23;9.63;;;8.80;;
18013;SDS011;9132;47.946;10.394;2023-09-08T05:24:51;9.20;;;8.32;;
18013;SDS011;9132;47.946;10.394;2023-09-08T05:27:17;9.70;;;8.70;;
18013;SDS011;9132;47.946;10.394;2023-09-08T05:29:44;10.30;;;9.30;;
18013;SDS011;9132;47.946;10.394;2023-09-08T05:32:10;9.85;;;8.93;;
18013;SDS011;9132;47.946;10.394;2023-09-08T05:34:36;12.35;;;9.30;;
18013;SDS011;9132;47.946;10.394;2023-09-08T05:37:03;10.48;;;9.07;;
18013;SDS011;9132;47.946;10.394;2023-09-08T05:39:29;9.70;;;8.70;;
18013;SDS011;9132;47.946;10.394;2023-09-08T05:41:57;11.00;;;9.90;;
18013;SDS011;9132;47.946;10.394;2023-09-08T05:44:23;11.05;;;9.90;;
18013;SDS011;9132;47.946;10.394;2023-09-08T05:46:50;10.18;;;9.18;;
18013;SDS011;9132;47.946;10.394;2023-09-08T05:49:16;9.90;;;9.00;;
18013;SDS011;9132;47.946;10.394;2023-09-08T05:51:43;10.57;;;9.57;;
18013;SDS011;9132;47.946;10.394;2023-09-08T05:54:09;10.73;;;9.65;;
18013;SDS011;9132;47.946;10.394;2023-09-08T05:56:36;10.40;;;9.50;;
18013;SDS011;9132;47.946;10.394;2023-09-08T05:59:04;10.52;;;9.52;;
18013;SDS011;9132;47.946;10.394;2023-09-08T06:01:30;11.60;;;10.10;;
18013;SDS011;9132;47.946;10.394;2023-09-08T06:03:57;12.23;;;10.00;;
18013;SDS011;9132;47.946;10.394;2023-09-08T06:06:24;16.23;;;10.77;;
18013;SDS011;9132;47.946;10.394;2023-09-08T06:08:51;15.35;;;11.30;;
18013;SDS011;9132;47.946;10.394;2023-09-08T06:11:17;13.07;;;10.65;;
18013;SDS011;9132;47.946;10.394;2023-09-08T06:13:43;11.82;;;9.77;;
18013;SDS011;9132;47.946;10.394;2023-09-08T06:16:11;11.27;;;8.55;;
18013;SDS011;9132;47.946;10.394;2023-09-08T06:18:37;10.55;;;9.50;;
18013;SDS011;9132;47.946;10.394;2023-09-08T06:21:06;10.07;;;9.07;;
18013;SDS011;9132;47.946;10.394;2023-09-08T06:23:32;10.25;;;9.35;;
18013;SDS011;9132;47.946;10.394;2023-09-08T06:25:59;9.95;;;8.85;;
18013;SDS011;9132;47.946;10.394;2023-09-08T06:28:26;13.82;;;9.25;;
18013;SDS011;9132;47.946;10.394;2023-09-08T06:30:52;9.73;;;8.40;;
18013;SDS011;9132;47.946;10.394;2023-09-08T06:33:20;9.88;;;8.98;;
18013;SDS011;9132;47.946;10.394;2023-09-08T06:35:47;10.93;;;8.88;;
18013;SDS011;9132;47.946;10.394;2023-09-08T06:38:13;9.60;;;8.75;;
18013;SDS011;9132;47.946;10.394;2023-09-08T06:40:40;9.32;;;8.43;;
18013;SDS011;9132;47.946;10.394;2023-09-08T06:43:06;10.38;;;9.32;;
18013;SDS011;9132;47.946;10.394;2023-09-08T06:45:32;9.35;;;8.52;;
18013;SDS011;9132;47.946;10.394;2023-09-08T06:47:59;9.30;;;8.50;;
18013;SDS011;9132;47.946;10.394;2023-09-08T06:50:26;10.00;;;9.10;;
18013;SDS011;9132;47.946;10.394;2023-09-08T06:52:55;10.00;;;9.20;;
18013;SDS011;9132;47.946;10.394;2023-09-08T06:55:21;10.48;;;9.48;;
18013;SDS011;9132;47.946;10.394;2023-09-08T06:57:47;10.15;;;9.25;;
18013;SDS011;9132;47.946;10.394;2023-09-08T07:00:14;10.45;;;9.38;;
18013;SDS011;9132;47.946;10.394;2023-09-08T07:02:42;10.45;;;9.55;;
18013;SDS011;9132;47.946;10.394;2023-09-08T07:05:08;10.95;;;9.90;;
18013;SDS011;9132;47.946;10.394;2023-09-08T07:07:37;11.05;;;10.15;;
18013;SDS011;9132;47.946;10.394;2023-09-08T07:10:03;13.27;;;11.98;;
18013;SDS011;9132;47.946;10.394;2023-09-08T07:12:30;13.25;;;11.70;;
18013;SDS011;9132;47.946;10.394;2023-09-08T07:14:56;11.27;;;10.05;;
18013;SDS011;9132;47.946;10.394;2023-09-08T07:17:23;12.52;;;11.40;;
18013;SDS011;9132;47.946;10.394;2023-09-08T07:19:49;11.18;;;10.15;;
18013;SDS011;9132;47.946;10.394;2023-09-08T07:22:16;16.02;;;12.73;;
18013;SDS011;9132;47.946;10.394;2023-09-08T07:24:44;13.32;;;12.13;;
18013;SDS011;9132;47.946;10.394;2023-09-08T07:27:10;14.52;;;13.23;;
18013;SDS011;9132;47.946;10.394;2023-09-08T07:29:38;15.02;;;13.52;;
18013;SDS011;9132;47.946;10.394;2023-09-08T07:32:05;14.02;;;12.82;;
18013;SDS011;9132;47.946;10.394;2023-09-08T07:34:31;13.80;;;12.52;;
18013;SDS011;9132;47.946;10.394;2023-09-08T07:36:58;12.75;;;11.65;;
18013;SDS011;9132;47.946;10.394;2023-09-08T07:39:24;13.73;;;12.38;;
18013;SDS011;9132;47.946;10.394;2023-09-08T07:41:51;13.95;;;11.88;;
18013;SDS011;9132;47.946;10.394;2023-09-08T07:44:18;11.73;;;10.63;;
18013;SDS011;9132;47.946;10.394;2023-09-08T07:46:44;12.07;;;10.90;;
18013;SDS011;9132;47.946;10.394;2023-09-08T07:49:11;12.55;;;11.25;;
18013;SDS011;9132;47.946;10.394;2023-09-08T07:51:37;12.05;;;10.85;;
18013;SDS011;9132;47.946;10.394;2023-09-08T07:54:04;10.85;;;9.75;;
18013;SDS011;9132;47.946;10.394;2023-09-08T07:56:31;12.13;;;10.93;;
18013;SDS011;9132;47.946;10.394;2023-09-08T07:58:59;11.40;;;10.20;;
18013;SDS011;9132;47.946;10.394;2023-09-08T08:01:25;12.57;;;11.35;;
18013;SDS011;9132;47.946;10.394;2023-09-08T08:03:51;12.77;;;11.57;;
18013;SDS011;9132;47.946;10.394;2023-09-08T08:06:18;12.20;;;11.10;;
18013;SDS011;9132;47.946;10.394;2023-09-08T08:08:44;12.65;;;11.35;;
18013;SDS011;9132;47.946;10.394;2023-09-08T08:11:11;12.30;;;11.00;;
18013;SDS011;9132;47.946;10.394;2023-09-08T08:13:37;11.65;;;10.65;;
18013;SDS011;9132;47.946;10.394;2023-09-08T08:16:05;13.82;;;11.20;;
18013;SDS011;9132;47.946;10.394;2023-09-08T08:18:31;11.90;;;10.90;;
18013;SDS011;9132;47.946;10.394;2023-09-08T08:20:57;12.75;;;11.55;;
18013;SDS011;9132;47.946;10.394;2023-09-08T08:23:25;11.98;;;10.88;;
18013;SDS011;9132;47.946;10.394;2023-09-08T08:25:51;11.80;;;10.70;;
18013;SDS011;9132;47.946;10.394;2023-09-08T08:28:18;10.85;;;9.95;;
18013;SDS011;9132;47.946;10.394;2023-09-08T08:30:45;13.07;;;11.93;;
18013;SDS011;9132;47.946;10.394;2023-09-08T08:33:13;11.23;;;10.18;;
18013;SDS011;9132;47.946;10.394;2023-09-08T08:35:39;11.25;;;10.15;;
18013;SDS011;9132;47.946;10.394;2023-09-08T08:38:06;12.27;;;11.07;;
18013;SDS011;9132;47.946;10.394;2023-09-08T08:40:32;9.93;;;8.93;;
18013;SDS011;9132;47.946;10.394;2023-09-08T08:42:59;12.07;;;11.02;;
18013;SDS011;9132;47.946;10.394;2023-09-08T08:45:27;12.63;;;11.45;;
18013;SDS011;9132;47.946;10.394;2023-09-08T08:47:55;14.38;;;12.13;;
18013;SDS011;9132;47.946;10.394;2023-09-08T08:50:24;11.57;;;10.40;;
18013;SDS011;9132;47.946;10.394;2023-09-08T08:52:50;12.80;;;11.60;;
18013;SDS011;9132;47.946;10.394;2023-09-08T08:55:17;12.70;;;11.07;;
18013;SDS011;9132;47.946;10.394;2023-09-08T08:57:44;11.88;;;10.48;;
18013;SDS011;9132;47.946;10.394;2023-09-08T09:00:11;12.40;;;10.18;;
18013;SDS011;9132;47.946;10.394;2023-09-08T09:02:38;15.23;;;11.20;;
18013;SDS011;9132;47.946;10.394;2023-09-08T09:05:05;10.40;;;9.40;;
18013;SDS011;9132;47.946;10.394;2023-09-08T09:07:34;10.77;;;9.75;;
18013;SDS011;9132;47.946;10.394;2023-09-08T09:10:01;10.27;;;8.50;;
18013;SDS011;9132;47.946;10.394;2023-09-08T09:12:27;9.93;;;9.13;;
18013;SDS011;9132;47.946;10.394;2023-09-08T09:14:54;10.82;;;9.77;;
18013;SDS011;9132;47.946;10.394;2023-09-08T09:17:20;10.55;;;9.50;;
18013;SDS011;9132;47.946;10.394;2023-09-08T09:19:47;9.32;;;8.43;;
18013;SDS011;9132;47.946;10.394;2023-09-08T09:22:13;10.88;;;9.70;;
18013;SDS011;9132;47.946;10.394;2023-09-08T09:24:41;9.77;;;8.93;;
18013;SDS011;9132;47.946;10.394;2023-09-08T09:27:08;12.10;;;9.50;;
18013;SDS011;9132;47.946;10.394;2023-09-08T09:29:35;11.77;;;8.70;;
18013;SDS011;9132;47.946;10.394;2023-09-08T09:32:09;7.28;;;6.55;;
18013;SDS011;9132;47.946;10.394;2023-09-08T09:34:35;9.98;;;8.40;;
18013;SDS011;9132;47.946;10.394;2023-09-08T09:37:02;10.65;;;7.50;;
18013;SDS011;9132;47.946;10.394;2023-09-08T09:39:30;6.80;;;6.30;;
18013;SDS011;9132;47.946;10.394;2023-09-08T09:41:58;9.13;;;8.23;;
18013;SDS011;9132;47.946;10.394;2023-09-08T09:44:24;7.95;;;7.15;;
18013;SDS011;9132;47.946;10.394;2023-09-08T09:46:51;8.52;;;7.45;;
18013;SDS011;9132;47.946;10.394;2023-09-08T09:49:18;7.68;;;6.97;;
18013;SDS011;9132;47.946;10.394;2023-09-08T09:51:45;7.20;;;6.53;;
18013;SDS011;9132;47.946;10.394;2023-09-08T09:54:12;7.75;;;6.95;;
18013;SDS011;9132;47.946;10.394;2023-09-08T09:56:39;8.43;;;7.00;;
18013;SDS011;9132;47.946;10.394;2023-09-08T09:59:08;7.97;;;7.18;;
18013;SDS011;9132;47.946;10.394;2023-09-08T10:01:35;10.90;;;7.13;;
18013;SDS011;9132;47.946;10.394;2023-09-08T10:04:01;7.60;;;6.80;;
18013;SDS011;9132;47.946;10.394;2023-09-08T10:06:29;7.90;;;7.10;;
18013;SDS011;9132;47.946;10.394;2023-09-08T10:08:56;7.88;;;7.15;;
18013;SDS011;9132;47.946;10.394;2023-09-08T10:11:24;8.95;;;8.05;;
18013;SDS011;9132;47.946;10.394;2023-09-08T10:13:53;9.18;;;7.40;;
18013;SDS011;9132;47.946;10.394;2023-09-08T10:16:23;7.20;;;6.60;;
18013;SDS011;9132;47.946;10.394;2023-09-08T10:18:52;7.65;;;6.95;;
18013;SDS011;9132;47.946;10.394;2023-09-08T10:21:19;8.07;;;7.38;;
18013;SDS011;9132;47.946;10.394;2023-09-08T10:23:49;7.65;;;6.75;;
18013;SDS011;9132;47.946;10.394;2023-09-08T10:26:18;8.05;;;7.20;;
18013;SDS011;9132;47.946;10.394;2023-09-08T10:28:47;9.63;;;7.45;;
18013;SDS011;9132;47.946;10.394;2023-09-08T10:31:13;7.63;;;6.93;;
18013;SDS011;9132;47.946;10.394;2023-09-08T10:33:42;8.27;;;7.57;;
18013;SDS011;9132;47.946;10.394;2023-09-08T10:36:08;7.68;;;6.80;;
18013;SDS011;9132;47.946;10.394;2023-09-08T10:38:35;8.60;;;6.82;;
18013;SDS011;9132;47.946;10.394;2023-09-08T10:41:25;8.07;;;7.28;;
18013;SDS011;9132;47.946;10.394;2023-09-08T10:43:54;7.03;;;6.32;;
18013;SDS011;9132;47.946;10.394;2023-09-08T10:46:21;8.35;;;7.53;;
18013;SDS011;9132;47.946;10.394;2023-09-08T10:48:49;7.97;;;7.15;;
18013;SDS011;9132;47.946;10.394;2023-09-08T10:51:16;7.68;;;6.93;;
18013;SDS011;9132;47.946;10.394;2023-09-08T10:53:46;8.07;;;7.28;;
18013;SDS011;9132;47.946;10.394;2023-09-08T10:56:12;8.10;;;7.32;;
18013;SDS011;9132;47.946;10.394;2023-09-08T10:58:39;7.20;;;6.60;;
18013;SDS011;9132;47.946;10.394;2023-09-08T11:01:07;8.25;;;7.40;;
18013;SDS011;9132;47.946;10.394;2023-09-08T11:03:45;7.38;;;6.68;;
18013;SDS011;9132;47.946;10.394;2023-09-08T11:06:15;8.45;;;7.57;;
18013;SDS011;9132;47.946;10.394;2023-09-08T11:08:42;7.13;;;6.57;;
18013;SDS011;9132;47.946;10.394;2023-09-08T11:11:09;7.97;;;7.20;;
18013;SDS011;9132;47.946;10.394;2023-09-08T11:13:36;8.15;;;7.25;;
18013;SDS011;9132;47.946;10.394;2023-09-08T11:16:02;7.30;;;6.70;;
18013;SDS011;9132;47.946;10.394;2023-09-08T11:18:29;9.35;;;7.85;;
18013;SDS011;9132;47.946;10.394;2023-09-08T11:20:56;9.38;;;7.20;;
18013;SDS011;9132;47.946;10.394;2023-09-08T11:23:24;8.18;;;7.07;;
18013;SDS011;9132;47.946;10.394;2023-09-08T11:25:51;8.45;;;7.68;;
18013;SDS011;9132;47.946;10.394;2023-09-08T11:28:17;8.82;;;8.13;;
18013;SDS011;9132;47.946;10.394;2023-09-08T11:30:45;8.63;;;6.72;;
18013;SDS011;9132;47.946;10.394;2023-09-08T11:33:13;8.13;;;7.35;;
18013;SDS011;9132;47.946;10.394;2023-09-08T11:35:39;10.98;;;7.68;;
18013;SDS011;9132;47.946;10.394;2023-09-08T11:38:09;8.27;;;7.65;;
18013;SDS011;9132;47.946;10.394;2023-09-08T11:40:37;7.90;;;7.28;;
18013;SDS011;9132;47.946;10.394;2023-09-08T11:43:03;7.60;;;6.75;;
18013;SDS011;9132;47.946;10.394;2023-09-08T11:45:30;9.60;;;7.30;;
18013;SDS011;9132;47.946;10.394;2023-09-08T11:47:57;7.88;;;7.05;;
18013;SDS011;9132;47.946;10.394;2023-09-08T11:50:23;7.63;;;6.85;;
18013;SDS011;9132;47.946;10.394;2023-09-08T11:52:50;8.40;;;7.55;;
18013;SDS011;9132;47.946;10.394;2023-09-08T11:55:17;9.35;;;6.88;;
18013;SDS011;9132;47.946;10.394;2023-09-08T11:57:45;7.60;;;6.90;;
18013;SDS011;9132;47.946;10.394;2023-09-08T12:00:12;6.85;;;6.25;;
18013;SDS011;9132;47.946;10.394;2023-09-08T12:02:41;7.00;;;6.40;;
18013;SDS011;9132;47.946;10.394;2023-09-08T12:05:10;8.55;;;7.50;;
18013;SDS011;9132;47.946;10.394;2023-09-08T12:07:37;7.00;;;6.00;;
18013;SDS011;9132;47.946;10.394;2023-09-08T12:10:06;6.90;;;6.22;;
18013;SDS011;9132;47.946;10.394;2023-09-08T12:12:34;7.97;;;6.35;;
18013;SDS011;9132;47.946;10.394;2023-09-08T12:15:02;7.47;;;6.07;;
18013;SDS011;9132;47.946;10.394;2023-09-08T12:17:28;7.53;;;6.65;;
18013;SDS011;9132;47.946;10.394;2023-09-08T12:19:54;8.43;;;6.57;;
18013;SDS011;9132;47.946;10.394;2023-09-08T12:22:20;6.28;;;5.68;;
18013;SDS011;9132;47.946;10.394;2023-09-08T12:24:48;7.57;;;6.18;;
18013;SDS011;9132;47.946;10.394;2023-09-08T12:27:15;7.25;;;6.55;;
18013;SDS011;9132;47.946;10.394;2023-09-08T12:29:42;7.60;;;6.90;;
18013;SDS011;9132;47.946;10.394;2023-09-08T12:32:18;8.02;;;6.88;;
18013;SDS011;9132;47.946;10.394;2023-09-08T12:34:45;8.55;;;6.50;;
18013;SDS011;9132;47.946;10.394;2023-09-08T12:37:11;8.07;;;7.47;;
18013;SDS011;9132;47.946;10.394;2023-09-08T12:39:38;7.63;;;6.93;;
18013;SDS011;9132;47.946;10.394;2023-09-08T12:42:04;6.70;;;6.00;;
18013;SDS011;9132;47.946;10.394;2023-09-08T12:44:30;6.93;;;6.00;;
18013;SDS011;9132;47.946;10.394;2023-09-08T12:46:57;6.30;;;5.68;;
18013;SDS011;9132;47.946;10.394;2023-09-08T12:49:24;8.57;;;6.00;;
18013;SDS011;9132;47.946;10.394;2023-09-08T12:51:51;6.32;;;5.75;;
18013;SDS011;9132;47.946;10.394;2023-09-08T12:54:17;6.03;;;5.43;;
18013;SDS011;9132;47.946;10.394;2023-09-08T12:56:43;6.40;;;5.80;;
18013;SDS011;9132;47.946;10.394;2023-09-08T12:59:10;8.15;;;5.80;;
18013;SDS011;9132;47.946;10.394;2023-09-08T13:01:36;6.15;;;5.55;;
18013;SDS011;9132;47.946;10.394;2023-09-08T13:04:02;6.90;;;6.30;;
18013;SDS011;9132;47.946;10.394;2023-09-08T13:06:30;8.23;;;7.00;;
18013;SDS011;9132;47.946;10.394;2023-09-08T13:08:57;8.07;;;6.00;;
18013;SDS011;9132;47.946;10.394;2023-09-08T13:11:24;7.10;;;5.93;;
18013;SDS011;9132;47.946;10.394;2023-09-08T13:13:51;7.13;;;6.40;;
18013;SDS011;9132;47.946;10.394;2023-09-08T13:16:17;7.22;;;6.63;;
18013;SDS011;9132;47.946;10.394;2023-09-08T13:18:43;8.55;;;6.40;;
18013;SDS011;9132;47.946;10.394;2023-09-08T13:21:10;6.55;;;6.00;;
18013;SDS011;9132;47.946;10.394;2023-09-08T13:23:38;5.90;;;5.40;;
18013;SDS011;9132;47.946;10.394;2023-09-08T13:26:04;7.05;;;6.40;;
18013;SDS011;9132;47.946;10.394;2023-09-08T13:28:30;7.40;;;6.70;;
18013;SDS011;9132;47.946;10.394;2023-09-08T13:30:57;7.82;;;6.28;;
18013;SDS011;9132;47.946;10.394;2023-09-08T13:33:23;7.13;;;6.50;;
18013;SDS011;9132;47.946;10.394;2023-09-08T13:35:50;6.35;;;5.78;;
18013;SDS011;9132;47.946;10.394;2023-09-08T13:38:16;6.45;;;5.82;;
18013;SDS011;9132;47.946;10.394;2023-09-08T13:40:44;6.70;;;6.10;;
18013;SDS011;9132;47.946;10.394;2023-09-08T13:43:10;7.32;;;6.28;;
18013;SDS011;9132;47.946;10.394;2023-09-08T13:45:37;6.57;;;5.70;;
18013;SDS011;9132;47.946;10.394;2023-09-08T13:48:03;7.45;;;6.70;;
18013;SDS011;9132;47.946;10.394;2023-09-08T13:50:31;6.82;;;6.03;;
18013;SDS011;9132;47.946;10.394;2023-09-08T13:52:57;6.85;;;5.97;;
18013;SDS011;9132;47.946;10.394;2023-09-08T13:55:23;8.07;;;6.07;;
18013;SDS011;9132;47.946;10.394;2023-09-08T13:57:51;6.60;;;6.03;;
18013;SDS011;9132;47.946;10.394;2023-09-08T14:00:18;7.85;;;5.93;;
18013;SDS011;9132;47.946;10.394;2023-09-08T14:02:44;6.55;;;5.82;;
18013;SDS011;9132;47.946;10.394;2023-09-08T14:05:10;6.97;;;6.38;;
18013;SDS011;9132;47.946;10.394;2023-09-08T14:07:37;6.38;;;5.57;;
18013;SDS011;9132;47.946;10.394;2023-09-08T14:10:03;6.38;;;5.78;;
18013;SDS011;9132;47.946;10.394;2023-09-08T14:12:32;7.35;;;5.88;;
18013;SDS011;9132;47.946;10.394;2023-09-08T14:15:00;6.93;;;6.32;;
18013;SDS011;9132;47.946;10.394;2023-09-08T14:17:26;6.18;;;5.65;;
18013;SDS011;9132;47.946;10.394;2023-09-08T14:19:52;6.47;;;5.47;;
18013;SDS011;9132;47.946;10.394;2023-09-08T14:22:18;6.70;;;6.10;;
18013;SDS011;9132;47.946;10.394;2023-09-08T14:24:45;6.05;;;5.55;;
18013;SDS011;9132;47.946;10.394;2023-09-08T14:27:11;6.57;;;5.90;;
18013;SDS011;9132;47.946;10.394;2023-09-08T14:29:37;6.13;;;5.63;;
18013;SDS011;9132;47.946;10.394;2023-09-08T14:32:05;6.47;;;5.85;;
18013;SDS011;9132;47.946;10.394;2023-09-08T14:34:31;7.60;;;5.97;;
18013;SDS011;9132;47.946;10.394;2023-09-08T14:36:58;7.20;;;6.53;;
18013;SDS011;9132;47.946;10.394;2023-09-08T14:39:24;8.77;;;5.85;;
18013;SDS011;9132;47.946;10.394;2023-09-08T14:41:51;6.30;;;5.80;;
18013;SDS011;9132;47.946;10.394;2023-09-08T14:44:18;7.10;;;6.40;;